createdAt,value
2022-11-23T00:00:39.625Z,8.50
2022-11-23T00:03:06.646Z,8.40
2022-11-23T00:05:37.285Z,8.40
2022-11-23T00:08:06.107Z,8.30
2022-11-23T00:10:35.763Z,8.40
2022-11-23T00:13:03.188Z,8.40
2022-11-23T00:15:30.211Z,8.30
2022-11-23T00:18:00.320Z,8.30
2022-11-23T00:20:27.472Z,8.20
2022-11-23T00:22:54.680Z,8.30
2022-11-23T00:25:21.677Z,8.40
2022-11-23T00:27:48.743Z,8.40
2022-11-23T00:30:16.513Z,8.40
2022-11-23T00:32:43.537Z,8.40
2022-11-23T00:35:14.018Z,8.50
2022-11-23T00:37:40.989Z,8.40
2022-11-23T00:40:10.075Z,8.40
2022-11-23T00:42:38.388Z,8.40
2022-11-23T00:45:06.772Z,8.40
2022-11-23T00:47:36.191Z,8.40
2022-11-23T00:50:03.973Z,8.40
2022-11-23T00:52:32.381Z,8.40
2022-11-23T00:54:59.418Z,8.40
2022-11-23T00:57:26.477Z,8.40
2022-11-23T00:59:53.612Z,8.50
2022-11-23T01:02:20.644Z,8.40
2022-11-23T01:04:47.779Z,8.50
2022-11-23T01:07:14.845Z,8.40
2022-11-23T01:09:43.314Z,8.50
2022-11-23T01:12:10.398Z,8.50
2022-11-23T01:14:37.612Z,8.50
2022-11-23T01:17:04.722Z,8.50
2022-11-23T01:19:32.150Z,8.50
2022-11-23T01:21:59.257Z,8.40
2022-11-23T01:24:26.454Z,8.50
2022-11-23T01:26:55.649Z,8.50
2022-11-23T01:29:23.803Z,8.40
2022-11-23T01:31:50.928Z,8.40
2022-11-23T01:34:18.075Z,8.40
2022-11-23T01:36:45.751Z,8.50
2022-11-23T01:39:13.330Z,8.50
2022-11-23T01:41:43.047Z,8.50
2022-11-23T01:44:30.168Z,8.50
2022-11-23T01:47:00.009Z,8.50
2022-11-23T01:49:31.436Z,8.50
2022-11-23T01:52:03.715Z,8.40
2022-11-23T01:54:34.839Z,8.50
2022-11-23T01:57:08.006Z,8.40
2022-11-23T01:59:39.150Z,8.50
2022-11-23T02:02:07.088Z,8.40
2022-11-23T02:04:39.391Z,8.40
2022-11-23T02:07:07.300Z,8.40
2022-11-23T02:09:35.321Z,8.50
2022-11-23T02:12:02.542Z,8.50
2022-11-23T02:14:30.128Z,8.50
2022-11-23T02:16:59.995Z,8.50
2022-11-23T02:19:41.762Z,8.40
2022-11-23T02:22:16.287Z,8.40
2022-11-23T02:24:49.739Z,8.50
2022-11-23T02:27:18.905Z,8.50
2022-11-23T02:29:48.246Z,8.50
2022-11-23T02:32:23.180Z,8.40
2022-11-23T02:34:50.439Z,8.50
2022-11-23T02:37:18.828Z,8.40
2022-11-23T02:39:48.806Z,8.40
2022-11-23T02:42:17.559Z,8.40
2022-11-23T02:44:51.562Z,8.40
2022-11-23T02:47:18.903Z,8.40
2022-11-23T02:49:47.883Z,8.40
2022-11-23T02:52:16.152Z,8.40
2022-11-23T02:54:43.291Z,8.40
2022-11-23T02:57:10.730Z,8.40
2022-11-23T02:59:39.108Z,8.40
2022-11-23T03:02:06.840Z,8.40
2022-11-23T03:04:34.083Z,8.40
2022-11-23T03:07:01.224Z,8.40
2022-11-23T03:09:28.258Z,8.40
2022-11-23T03:11:55.664Z,8.40
2022-11-23T03:14:22.777Z,8.40
2022-11-23T03:16:51.371Z,8.40
2022-11-23T03:19:18.399Z,8.40
2022-11-23T03:21:45.580Z,8.40
2022-11-23T03:24:12.647Z,8.40
2022-11-23T03:26:39.789Z,8.40
2022-11-23T03:29:06.823Z,8.40
2022-11-23T03:31:33.806Z,8.40
2022-11-23T03:34:02.127Z,8.40
2022-11-23T03:36:29.118Z,8.40
2022-11-23T03:38:56.307Z,8.40
2022-11-23T03:41:23.286Z,8.40
2022-11-23T03:43:50.424Z,8.50
2022-11-23T03:46:17.471Z,8.50
2022-11-23T03:48:44.641Z,8.60
2022-11-23T03:51:13.027Z,8.60
2022-11-23T03:53:40.131Z,8.60
2022-11-23T03:56:07.793Z,8.60
2022-11-23T03:58:35.048Z,8.60
2022-11-23T04:01:02.506Z,8.70
2022-11-23T04:03:29.782Z,8.70
2022-11-23T04:05:56.787Z,8.70
2022-11-23T04:08:25.527Z,8.50
2022-11-23T04:10:52.584Z,8.50
2022-11-23T04:13:19.783Z,8.50
2022-11-23T04:15:46.820Z,8.60
2022-11-23T04:18:14.512Z,8.50
2022-11-23T04:20:44.217Z,8.60
2022-11-23T04:23:13.858Z,8.50
2022-11-23T04:25:43.000Z,8.60
2022-11-23T04:28:10.108Z,8.50
2022-11-23T04:30:37.245Z,8.50
2022-11-23T04:33:04.520Z,8.50
2022-11-23T04:35:31.590Z,8.50
2022-11-23T04:37:58.808Z,8.50
2022-11-23T04:40:25.888Z,8.50
2022-11-23T04:42:58.855Z,8.40
2022-11-23T04:45:28.529Z,8.50
2022-11-23T04:47:55.722Z,8.50
2022-11-23T04:50:22.774Z,8.50
2022-11-23T04:52:49.970Z,8.50
2022-11-23T04:55:17.097Z,8.50
2022-11-23T04:57:44.752Z,8.50
2022-11-23T05:00:15.589Z,8.50
2022-11-23T05:02:42.820Z,8.60
2022-11-23T05:05:10.010Z,8.60
2022-11-23T05:07:37.275Z,8.60
2022-11-23T05:10:05.423Z,8.60
2022-11-23T05:12:32.576Z,8.60
2022-11-23T05:14:59.974Z,8.60
2022-11-23T05:17:28.316Z,8.60
2022-11-23T05:19:57.479Z,8.60
2022-11-23T05:22:24.584Z,8.60
2022-11-23T05:24:51.588Z,8.60
2022-11-23T05:27:18.635Z,8.60
2022-11-23T05:29:45.708Z,8.60
2022-11-23T05:32:12.699Z,8.60
2022-11-23T05:34:41.123Z,8.60
2022-11-23T05:37:08.354Z,8.60
2022-11-23T05:39:35.448Z,8.60
2022-11-23T05:42:02.448Z,8.50
2022-11-23T05:44:29.471Z,8.60
2022-11-23T05:46:56.497Z,8.60
2022-11-23T05:49:23.664Z,8.60
2022-11-23T05:51:52.083Z,8.60
2022-11-23T05:54:19.463Z,8.50
2022-11-23T05:56:46.463Z,8.60
2022-11-23T05:59:13.791Z,8.60
2022-11-23T06:01:40.780Z,8.70
2022-11-23T06:04:08.037Z,8.60
2022-11-23T06:06:35.116Z,8.60
2022-11-23T06:09:04.056Z,8.60
2022-11-23T06:11:32.423Z,8.60
2022-11-23T06:13:59.712Z,8.60
2022-11-23T06:16:27.148Z,8.60
2022-11-23T06:18:55.132Z,8.60
2022-11-23T06:21:22.185Z,8.60
2022-11-23T06:23:49.562Z,8.60
2022-11-23T06:26:17.899Z,8.60
2022-11-23T06:28:45.928Z,8.60
2022-11-23T06:31:15.456Z,8.60
2022-11-23T06:33:42.551Z,8.70
2022-11-23T06:36:11.198Z,8.60
2022-11-23T06:38:39.114Z,8.60
2022-11-23T06:41:06.490Z,8.60
2022-11-23T06:43:34.999Z,8.60
2022-11-23T06:46:05.403Z,8.60
2022-11-23T06:48:32.891Z,8.60
2022-11-23T06:51:00.418Z,8.60
2022-11-23T06:53:28.104Z,8.60
2022-11-23T06:55:59.763Z,8.60
2022-11-23T06:58:27.188Z,8.60
2022-11-23T07:01:02.088Z,8.60
2022-11-23T07:03:29.801Z,8.60
2022-11-23T07:05:57.318Z,8.60
2022-11-23T07:08:24.985Z,8.60
2022-11-23T07:10:52.601Z,8.60
2022-11-23T07:13:19.767Z,8.60
2022-11-23T07:15:49.272Z,8.70
2022-11-23T07:18:17.684Z,8.60
2022-11-23T07:20:44.766Z,8.50
2022-11-23T07:23:12.392Z,8.50
2022-11-23T07:25:39.492Z,8.50
2022-11-23T07:28:08.630Z,8.50
2022-11-23T07:30:36.871Z,8.50
2022-11-23T07:33:06.177Z,8.60
2022-11-23T07:35:35.079Z,8.50
2022-11-23T07:38:03.162Z,8.50
2022-11-23T07:40:30.580Z,8.50
2022-11-23T07:43:01.395Z,8.60
2022-11-23T07:45:29.002Z,8.60
2022-11-23T07:48:00.897Z,8.60
2022-11-23T07:50:28.335Z,8.50
2022-11-23T07:52:59.109Z,8.60
2022-11-23T07:55:26.136Z,8.60
2022-11-23T07:57:54.326Z,8.50
2022-11-23T08:00:22.447Z,8.60
2022-11-23T08:03:19.476Z,8.50
2022-11-23T08:05:36.803Z,8.60
2022-11-23T08:08:05.666Z,8.60
2022-11-23T08:10:32.919Z,8.70
2022-11-23T08:13:01.266Z,8.60
2022-11-23T08:15:28.633Z,8.70
2022-11-23T08:17:56.406Z,8.70
2022-11-23T08:20:23.542Z,8.70
2022-11-23T08:22:50.736Z,8.70
2022-11-23T08:25:19.133Z,8.60
2022-11-23T08:27:46.237Z,8.70
2022-11-23T08:30:15.512Z,8.70
2022-11-23T08:32:42.538Z,8.80
2022-11-23T08:35:09.927Z,8.80
2022-11-23T08:37:37.012Z,8.80
2022-11-23T08:40:05.004Z,8.80
2022-11-23T08:42:33.624Z,8.90
2022-11-23T08:45:03.076Z,8.90
2022-11-23T08:47:31.292Z,9.00
2022-11-23T08:49:58.360Z,9.00
2022-11-23T08:52:25.872Z,9.00
2022-11-23T08:54:57.112Z,9.10
2022-11-23T08:57:24.268Z,9.20
2022-11-23T08:59:52.676Z,9.20
2022-11-23T09:02:21.645Z,9.20
2022-11-23T09:04:48.850Z,9.20
2022-11-23T09:07:15.947Z,9.30
2022-11-23T09:09:42.964Z,9.40
2022-11-23T09:12:10.097Z,9.50
2022-11-23T09:14:37.121Z,9.50
2022-11-23T09:17:05.759Z,9.60
2022-11-23T09:19:33.066Z,9.60
2022-11-23T09:22:00.111Z,9.60
2022-11-23T09:24:28.074Z,9.50
2022-11-23T09:26:56.297Z,9.60
2022-11-23T09:29:25.471Z,9.60
2022-11-23T09:31:53.078Z,9.60
2022-11-23T09:34:21.711Z,9.70
2022-11-23T09:36:48.990Z,9.90
2022-11-23T09:39:16.483Z,9.90
2022-11-23T09:42:44.074Z,10.10
2022-11-23T09:45:28.466Z,10.10
2022-11-23T09:48:22.065Z,10.20
2022-11-23T09:50:56.800Z,10.40
2022-11-23T09:53:30.540Z,10.50
2022-11-23T09:55:58.369Z,10.50
2022-11-23T09:58:33.479Z,10.40
2022-11-23T10:01:05.006Z,10.30
2022-11-23T10:03:37.155Z,10.20
2022-11-23T10:06:20.301Z,10.20
2022-11-23T10:09:01.209Z,10.20
2022-11-23T10:12:05.972Z,10.10
2022-11-23T10:14:53.456Z,10.10
2022-11-23T10:17:32.146Z,10.10
2022-11-23T10:20:19.102Z,10.20
2022-11-23T10:22:57.817Z,10.20
2022-11-23T10:25:30.955Z,10.20
2022-11-23T10:28:12.329Z,10.20
2022-11-23T10:30:39.971Z,10.20
2022-11-23T10:33:27.073Z,10.30
2022-11-23T10:35:58.949Z,10.40
2022-11-23T10:38:28.960Z,10.50
2022-11-23T10:41:13.021Z,10.50
2022-11-23T10:43:47.534Z,10.50
2022-11-23T10:46:29.345Z,10.40
2022-11-23T10:49:09.716Z,10.40
2022-11-23T10:51:38.192Z,10.30
2022-11-23T10:54:21.751Z,10.40
2022-11-23T10:56:54.005Z,10.40
2022-11-23T10:59:35.987Z,10.50
2022-11-23T11:02:19.443Z,10.50
2022-11-23T11:04:53.241Z,10.40
2022-11-23T11:07:28.578Z,10.50
2022-11-23T11:10:00.464Z,10.50
2022-11-23T11:12:30.317Z,10.50
2022-11-23T11:15:11.402Z,10.60
2022-11-23T11:17:41.680Z,10.70
2022-11-23T11:20:31.666Z,10.70
2022-11-23T11:23:02.393Z,10.70
2022-11-23T11:25:35.405Z,10.70
2022-11-23T11:28:03.800Z,10.60
2022-11-23T11:30:43.640Z,10.70
2022-11-23T11:33:22.807Z,10.70
2022-11-23T11:35:53.271Z,10.70
2022-11-23T11:38:27.194Z,10.80
2022-11-23T11:41:00.391Z,10.70
2022-11-23T11:43:39.549Z,10.70
2022-11-23T11:46:29.149Z,10.70
2022-11-23T11:49:05.478Z,10.70
2022-11-23T11:51:45.109Z,10.70
2022-11-23T11:54:21.172Z,10.70
2022-11-23T11:56:52.622Z,10.70
2022-11-23T11:59:26.919Z,10.60
2022-11-23T12:02:01.184Z,10.60
2022-11-23T12:04:40.511Z,10.70
2022-11-23T12:07:18.057Z,10.70
2022-11-23T12:09:50.840Z,10.70
2022-11-23T12:12:26.644Z,10.70
2022-11-23T12:14:57.671Z,10.70
2022-11-23T12:18:11.580Z,10.70
2022-11-23T12:20:50.108Z,10.80
2022-11-23T12:23:34.464Z,10.80
2022-11-23T12:26:18.392Z,10.90
2022-11-23T12:29:09.241Z,10.80
2022-11-23T12:31:44.000Z,10.80
2022-11-23T12:34:29.287Z,10.90
2022-11-23T12:37:29.092Z,10.90
2022-11-23T12:40:39.616Z,10.90
2022-11-23T12:43:14.849Z,10.90
2022-11-23T12:46:08.395Z,10.90
2022-11-23T12:49:09.946Z,10.90
2022-11-23T12:51:48.566Z,11.00
2022-11-23T12:54:42.227Z,11.00
2022-11-23T12:57:16.657Z,11.00
2022-11-23T12:59:50.435Z,11.00
2022-11-23T13:02:57.245Z,11.00
2022-11-23T13:05:56.609Z,11.00
2022-11-23T13:09:01.119Z,11.00
2022-11-23T13:11:44.002Z,11.00
2022-11-23T13:14:26.856Z,11.10
2022-11-23T13:17:22.302Z,11.00
2022-11-23T13:20:16.548Z,11.00
2022-11-23T13:22:47.680Z,11.00
2022-11-23T13:25:23.419Z,11.10
2022-11-23T13:28:04.262Z,11.10
2022-11-23T13:31:07.419Z,11.10
2022-11-23T13:33:32.842Z,11.10
2022-11-23T13:36:10.438Z,11.10
2022-11-23T13:38:43.519Z,11.10
2022-11-23T13:41:57.738Z,11.10
2022-11-23T13:44:31.514Z,11.10
2022-11-23T13:47:21.355Z,11.00
2022-11-23T13:49:51.285Z,11.00
2022-11-23T13:52:35.825Z,10.90
2022-11-23T13:55:20.459Z,10.90
2022-11-23T13:58:41.132Z,10.90
2022-11-23T14:01:09.628Z,10.90
2022-11-23T14:03:53.597Z,10.90
2022-11-23T14:06:33.764Z,10.90
2022-11-23T14:09:13.032Z,10.90
2022-11-23T14:11:52.654Z,10.80
2022-11-23T14:14:27.207Z,10.80
2022-11-23T14:17:38.015Z,10.80
2022-11-23T14:20:20.197Z,10.80
2022-11-23T14:23:10.902Z,10.70
2022-11-23T14:25:56.058Z,10.70
2022-11-23T14:28:44.434Z,10.70
2022-11-23T14:31:23.417Z,10.60
2022-11-23T14:33:57.546Z,10.60
2022-11-23T14:36:41.578Z,10.60
2022-11-23T14:39:56.442Z,10.60
2022-11-23T14:42:28.652Z,10.50
2022-11-23T14:44:58.198Z,10.40
2022-11-23T14:47:29.552Z,10.50
2022-11-23T14:49:57.515Z,10.50
2022-11-23T14:52:29.264Z,10.40
2022-11-23T14:55:00.589Z,10.40
2022-11-23T14:57:40.669Z,10.40
2022-11-23T15:00:27.813Z,10.40
2022-11-23T15:02:58.761Z,10.40
2022-11-23T15:05:31.361Z,10.30
2022-11-23T15:08:04.892Z,10.30
2022-11-23T15:10:43.632Z,10.20
2022-11-23T15:13:24.341Z,10.20
2022-11-23T15:15:54.985Z,10.20
2022-11-23T15:18:31.446Z,10.20
2022-11-23T15:21:02.168Z,10.20
2022-11-23T15:23:36.660Z,10.20
2022-11-23T15:26:12.296Z,10.20
2022-11-23T15:28:40.710Z,10.20
2022-11-23T15:31:30.597Z,10.20
2022-11-23T15:34:03.815Z,10.20
2022-11-23T15:36:33.764Z,10.30
2022-11-23T15:39:03.009Z,10.30
2022-11-23T15:41:31.594Z,10.20
2022-11-23T15:44:01.811Z,10.20
2022-11-23T15:46:35.904Z,10.30
2022-11-23T15:49:06.238Z,10.30
2022-11-23T15:51:38.988Z,10.30
2022-11-23T15:54:14.199Z,10.30
2022-11-23T15:56:46.226Z,10.30
2022-11-23T15:59:31.127Z,10.30
2022-11-23T16:02:00.666Z,10.30
2022-11-23T16:04:31.310Z,10.30
2022-11-23T16:06:58.847Z,10.30
2022-11-23T16:09:54.924Z,10.30
2022-11-23T16:12:28.618Z,10.30
2022-11-23T16:14:59.776Z,10.30
2022-11-23T16:17:28.589Z,10.30
2022-11-23T16:19:57.649Z,10.30
2022-11-23T16:22:32.167Z,10.30
2022-11-23T16:25:08.670Z,10.30
2022-11-23T16:27:39.047Z,10.30
2022-11-23T16:30:24.039Z,10.30
2022-11-23T16:32:51.116Z,10.30
2022-11-23T16:35:21.038Z,10.30
2022-11-23T16:37:48.286Z,10.30
2022-11-23T16:40:16.046Z,10.30
2022-11-23T16:42:43.479Z,10.10
2022-11-23T16:45:12.277Z,10.10
2022-11-23T16:47:52.933Z,10.10
2022-11-23T16:50:20.862Z,10.10
2022-11-23T16:52:48.076Z,10.20
2022-11-23T16:55:15.353Z,10.20
2022-11-23T16:57:43.961Z,10.20
2022-11-23T17:00:18.144Z,10.30
2022-11-23T17:02:45.738Z,10.20
2022-11-23T17:05:18.388Z,10.20
2022-11-23T17:07:46.319Z,10.30
2022-11-23T17:10:14.910Z,10.30
2022-11-23T17:12:49.806Z,10.20
2022-11-23T17:15:25.441Z,10.20
2022-11-23T17:17:52.680Z,10.20
2022-11-23T17:20:20.497Z,10.10
2022-11-23T17:22:51.598Z,10.10
2022-11-23T17:25:19.357Z,10.10
2022-11-23T17:27:48.788Z,10.10
2022-11-23T17:30:22.084Z,10.00
2022-11-23T17:32:49.551Z,10.00
2022-11-23T17:35:17.309Z,10.00
2022-11-23T17:37:45.233Z,10.00
2022-11-23T17:40:15.054Z,10.00
2022-11-23T17:42:42.103Z,9.90
2022-11-23T17:48:15.142Z,9.70
2022-11-23T17:50:49.032Z,9.70
2022-11-23T17:53:17.330Z,9.70
2022-11-23T17:55:49.121Z,9.60
2022-11-23T17:58:19.112Z,9.60
2022-11-23T18:00:46.282Z,9.60
2022-11-23T18:03:14.619Z,9.60
2022-11-23T18:05:44.898Z,9.60
2022-11-23T18:08:13.981Z,9.50
2022-11-23T18:10:40.849Z,9.60
2022-11-23T18:13:07.932Z,9.60
2022-11-23T18:15:37.101Z,9.60
2022-11-23T18:18:05.083Z,9.40
2022-11-23T18:20:33.523Z,9.30
2022-11-23T18:23:03.513Z,9.20
2022-11-23T18:25:30.733Z,9.30
2022-11-23T18:27:57.794Z,9.20
2022-11-23T18:30:24.886Z,9.20
2022-11-23T18:32:51.905Z,9.20
2022-11-23T18:35:18.949Z,9.30
2022-11-23T18:37:50.194Z,9.30
2022-11-23T18:40:17.326Z,9.20
2022-11-23T18:42:44.270Z,9.20
2022-11-23T18:45:11.385Z,9.20
2022-11-23T18:47:38.398Z,9.30
2022-11-23T18:50:07.002Z,9.20
2022-11-23T18:52:37.157Z,9.20
2022-11-23T18:55:06.952Z,9.20
2022-11-23T18:57:34.212Z,9.20
2022-11-23T19:00:01.794Z,9.20
2022-11-23T19:02:29.306Z,9.20
2022-11-23T19:04:56.407Z,9.30
2022-11-23T19:07:27.167Z,9.20
2022-11-23T19:09:57.637Z,9.20
2022-11-23T19:12:25.979Z,9.20
2022-11-23T19:14:55.406Z,9.10
2022-11-23T19:17:28.516Z,9.10
2022-11-23T19:19:55.519Z,9.10
2022-11-23T19:22:25.715Z,9.10
2022-11-23T19:24:52.763Z,9.20
2022-11-23T19:27:19.974Z,9.20
2022-11-23T19:29:48.385Z,9.20
2022-11-23T19:32:15.399Z,9.10
2022-11-23T19:34:45.530Z,9.10
2022-11-23T19:37:12.722Z,9.20
2022-11-23T19:39:39.696Z,9.20
2022-11-23T19:42:06.867Z,9.30
2022-11-23T19:44:36.861Z,9.30
2022-11-23T19:47:12.012Z,9.20
2022-11-23T19:49:48.123Z,9.20
2022-11-23T19:52:16.354Z,9.20
2022-11-23T19:54:49.096Z,9.20
2022-11-23T19:57:16.010Z,9.20
2022-11-23T19:59:43.114Z,9.10
2022-11-23T20:02:23.340Z,9.10
2022-11-23T20:04:53.280Z,9.00
2022-11-23T20:07:20.676Z,9.00
2022-11-23T20:09:47.873Z,8.90
2022-11-23T20:12:19.195Z,8.90
2022-11-23T20:14:46.135Z,8.90
2022-11-23T20:17:14.742Z,8.90
2022-11-23T20:19:41.667Z,8.90
2022-11-23T20:22:08.871Z,8.90
2022-11-23T20:24:36.275Z,8.80
2022-11-23T20:27:03.466Z,8.90
2022-11-23T20:29:30.757Z,8.90
2022-11-23T20:31:58.155Z,8.80
2022-11-23T20:34:27.248Z,8.80
2022-11-23T20:36:54.213Z,8.90
2022-11-23T20:39:21.749Z,8.80
2022-11-23T20:41:49.700Z,8.70
2022-11-23T20:44:16.810Z,8.70
2022-11-23T20:47:01.910Z,8.70
2022-11-23T20:49:32.020Z,8.60
2022-11-23T20:52:04.937Z,8.40
2022-11-23T20:54:32.506Z,8.40
2022-11-23T20:57:00.196Z,8.40
2022-11-23T20:59:27.630Z,8.40
2022-11-23T21:02:01.808Z,8.30
2022-11-23T21:04:28.773Z,8.40
2022-11-23T21:06:57.078Z,8.30
2022-11-23T21:09:24.119Z,8.30
2022-11-23T21:12:09.825Z,8.30
2022-11-23T21:14:40.029Z,8.20
2022-11-23T21:17:07.242Z,8.10
2022-11-23T21:19:36.889Z,8.10
2022-11-23T21:22:08.436Z,8.20
2022-11-23T21:24:36.427Z,8.10
2022-11-23T21:27:04.945Z,8.10
2022-11-23T21:29:33.209Z,8.10
2022-11-23T21:32:01.488Z,8.10
2022-11-23T21:34:30.513Z,8.20
2022-11-23T21:36:58.354Z,8.20
2022-11-23T21:39:26.851Z,8.20
2022-11-23T21:41:54.467Z,8.20
2022-11-23T21:44:22.775Z,8.20
2022-11-23T21:46:50.371Z,8.00
2022-11-23T21:49:17.430Z,8.10
2022-11-23T21:51:45.997Z,7.90
2022-11-23T21:54:15.410Z,8.00
2022-11-23T21:56:45.913Z,8.00
2022-11-23T21:59:15.710Z,8.00
2022-11-23T22:01:43.065Z,7.90
2022-11-23T22:04:12.243Z,7.90
2022-11-23T22:06:41.299Z,7.90
2022-11-23T22:09:12.120Z,7.90
2022-11-23T22:11:42.313Z,7.80
2022-11-23T22:14:13.140Z,7.80
2022-11-23T22:16:43.067Z,7.70
2022-11-23T22:19:11.847Z,7.70
2022-11-23T22:21:43.576Z,7.70
2022-11-23T22:24:15.891Z,7.60
2022-11-23T22:26:43.305Z,7.60
2022-11-23T22:29:12.566Z,7.60
2022-11-23T22:31:40.460Z,7.40
2022-11-23T22:34:14.084Z,7.50
2022-11-23T22:36:41.358Z,7.60
2022-11-23T22:39:08.782Z,7.60
2022-11-23T22:41:37.491Z,7.50
2022-11-23T22:44:06.390Z,7.50
2022-11-23T22:46:36.752Z,7.40
2022-11-23T22:49:07.229Z,7.40
2022-11-23T22:51:34.236Z,7.30
2022-11-23T22:54:10.712Z,7.30
2022-11-23T22:56:39.023Z,7.30
2022-11-23T22:59:11.570Z,7.20
2022-11-23T23:01:39.885Z,7.20
2022-11-23T23:04:09.912Z,7.20
2022-11-23T23:06:39.669Z,7.20
2022-11-23T23:09:09.267Z,7.20
2022-11-23T23:11:36.688Z,7.20
2022-11-23T23:14:04.102Z,7.10
2022-11-23T23:16:34.413Z,7.10
2022-11-23T23:19:03.413Z,7.00
2022-11-23T23:21:36.331Z,6.90
2022-11-23T23:24:06.375Z,6.90
2022-11-23T23:26:33.338Z,6.80
2022-11-23T23:29:01.582Z,6.80
2022-11-23T23:31:30.579Z,6.70
2022-11-23T23:34:02.290Z,6.70
2022-11-23T23:39:19.297Z,6.50
2022-11-23T23:41:46.591Z,6.60
2022-11-23T23:44:13.686Z,6.50
2022-11-23T23:46:40.790Z,6.50
2022-11-23T23:49:09.007Z,6.60
2022-11-23T23:51:36.264Z,6.50
2022-11-23T23:54:03.317Z,6.60
2022-11-23T23:56:33.386Z,6.60
2022-11-23T23:59:05.730Z,6.60
